KHUF/HUF METAR and TAF weather

Enter ICAO airport designator
Station Type Date Time Source
KHUF METAR 2019/04/19 10:53 UTC NOAA

KHUF 191053Z 35010KT 10SM OVC018 06/04 A2968 RMK AO2 RAE0955 SLP050 P0000 T00560039


Station Type Date Time Source
KHUF Decoded METAR 2019/04/19 10:53 UTC NOAA

TERRE HAUTE INTERNATIONAL -HULMAN FLD, IN, United States (KHUF) 39-27N 087-19W 179M
Apr 19, 2019 - 06:53 AM EDT / 2019.04.19 1053 UTC
Wind: from the N (350 degrees) at 12 MPH (10 KT):0
Visibility: 10 mile(s):0
Sky conditions: overcast
Precipitation last hour: A trace
Temperature: 42.1 F (5.6 C)
Dew Point: 39.0 F (3.9 C)
Relative Humidity: 88%
Pressure (altimeter): 29.68 in. Hg (1005 hPa)
ob: KHUF 191053Z 35010KT 10SM OVC018 06/04 A2968 RMK AO2 RAE0955 SLP050 P0000 T00560039
cycle: 11

Station Type Date Time Source
KHUF TAF 2019/04/19 06:22 UTC NOAA

TAF KHUF 190520Z 1906/2006 35012KT P6SM -RA OVC010
FM191100 36017G25KT 6SM SHRA BR OVC011
FM191200 36015KT P6SM VCSH OVC009
FM191400 35015KT 6SM -SHRA BR OVC009
FM191700 36016KT P6SM VCSH OVC012

Example: see airport list